sensor_id;sensor_type;location;lat;lon;timestamp;pressure;altitude;pressure_sealevel;temperature;humidity
14273;BME280;7220;49.450;11.052;2023-09-19T00:01:20;97670.97;;;17.97;100.00
14273;BME280;7220;49.450;11.052;2023-09-19T00:05:21;97659.47;;;17.95;100.00
14273;BME280;7220;49.450;11.052;2023-09-19T00:09:25;97660.50;;;17.94;100.00
14273;BME280;7220;49.450;11.052;2023-09-19T00:13:28;97669.97;;;17.98;100.00
14273;BME280;7220;49.450;11.052;2023-09-19T00:17:28;97666.56;;;17.96;100.00
14273;BME280;7220;49.450;11.052;2023-09-19T00:21:31;97671.25;;;17.94;100.00
14273;BME280;7220;49.450;11.052;2023-09-19T00:25:32;97669.81;;;17.90;100.00
14273;BME280;7220;49.450;11.052;2023-09-19T00:29:32;97681.56;;;17.89;100.00
14273;BME280;7220;49.450;11.052;2023-09-19T00:33:33;97675.47;;;17.87;100.00
14273;BME280;7220;49.450;11.052;2023-09-19T00:37:34;97685.22;;;17.88;100.00
14273;BME280;7220;49.450;11.052;2023-09-19T00:41:34;97691.31;;;17.90;100.00
14273;BME280;7220;49.450;11.052;2023-09-19T00:45:39;97690.75;;;17.86;100.00
14273;BME280;7220;49.450;11.052;2023-09-19T00:49:46;97695.56;;;17.82;100.00
14273;BME280;7220;49.450;11.052;2023-09-19T00:53:49;97707.16;;;17.83;100.00
14273;BME280;7220;49.450;11.052;2023-09-19T00:57:50;97693.00;;;17.71;100.00
14273;BME280;7220;49.450;11.052;2023-09-19T01:01:51;97708.84;;;17.74;100.00
14273;BME280;7220;49.450;11.052;2023-09-19T01:05:54;97713.81;;;17.69;100.00
14273;BME280;7220;49.450;11.052;2023-09-19T01:09:54;97715.06;;;17.65;100.00
14273;BME280;7220;49.450;11.052;2023-09-19T01:22:37;97705.72;;;17.59;100.00
14273;BME280;7220;49.450;11.052;2023-09-19T01:31:03;97723.94;;;17.56;100.00
14273;BME280;7220;49.450;11.052;2023-09-19T01:35:04;97736.13;;;17.60;100.00
14273;BME280;7220;49.450;11.052;2023-09-19T01:39:12;97740.63;;;17.59;100.00
14273;BME280;7220;49.450;11.052;2023-09-19T01:47:28;97728.50;;;17.65;100.00
14273;BME280;7220;49.450;11.052;2023-09-19T01:51:50;97726.38;;;17.69;100.00
14273;BME280;7220;49.450;11.052;2023-09-19T01:55:52;97736.00;;;17.71;100.00
14273;BME280;7220;49.450;11.052;2023-09-19T02:00:06;97731.47;;;17.72;100.00
14273;BME280;7220;49.450;11.052;2023-09-19T02:04:07;97737.69;;;17.72;100.00
14273;BME280;7220;49.450;11.052;2023-09-19T02:08:07;97742.22;;;17.72;100.00
14273;BME280;7220;49.450;11.052;2023-09-19T02:12:09;97736.72;;;17.73;100.00
14273;BME280;7220;49.450;11.052;2023-09-19T02:16:09;97740.13;;;17.75;100.00
14273;BME280;7220;49.450;11.052;2023-09-19T02:20:12;97755.09;;;17.78;100.00
14273;BME280;7220;49.450;11.052;2023-09-19T02:24:15;97739.13;;;17.76;100.00
14273;BME280;7220;49.450;11.052;2023-09-19T02:28:15;97745.91;;;17.80;100.00
14273;BME280;7220;49.450;11.052;2023-09-19T02:32:16;97739.84;;;17.78;100.00
14273;BME280;7220;49.450;11.052;2023-09-19T02:36:18;97755.81;;;17.80;100.00
14273;BME280;7220;49.450;11.052;2023-09-19T02:40:18;97752.28;;;17.79;100.00
14273;BME280;7220;49.450;11.052;2023-09-19T02:44:19;97758.06;;;17.75;100.00
14273;BME280;7220;49.450;11.052;2023-09-19T02:48:20;97759.66;;;17.77;100.00
14273;BME280;7220;49.450;11.052;2023-09-19T02:52:20;97770.50;;;17.76;100.00
14273;BME280;7220;49.450;11.052;2023-09-19T02:56:21;97775.06;;;17.75;100.00
14273;BME280;7220;49.450;11.052;2023-09-19T03:00:23;97774.91;;;17.77;100.00
14273;BME280;7220;49.450;11.052;2023-09-19T03:04:24;97781.56;;;17.73;100.00
14273;BME280;7220;49.450;11.052;2023-09-19T03:08:24;97784.66;;;17.68;100.00
14273;BME280;7220;49.450;11.052;2023-09-19T03:12:26;97786.63;;;17.66;100.00
14273;BME280;7220;49.450;11.052;2023-09-19T03:16:26;97790.03;;;17.68;100.00
14273;BME280;7220;49.450;11.052;2023-09-19T03:20:26;97788.59;;;17.64;100.00
14273;BME280;7220;49.450;11.052;2023-09-19T03:24:27;97801.03;;;17.65;100.00
14273;BME280;7220;49.450;11.052;2023-09-19T03:28:29;97788.88;;;17.61;100.00
14273;BME280;7220;49.450;11.052;2023-09-19T03:32:29;97792.81;;;17.57;100.00
14273;BME280;7220;49.450;11.052;2023-09-19T03:36:30;97785.31;;;17.50;100.00
14273;BME280;7220;49.450;11.052;2023-09-19T03:40:30;97790.69;;;17.50;100.00
14273;BME280;7220;49.450;11.052;2023-09-19T03:44:31;97792.78;;;17.47;100.00
14273;BME280;7220;49.450;11.052;2023-09-19T03:48:31;97803.38;;;17.48;100.00
14273;BME280;7220;49.450;11.052;2023-09-19T03:52:32;97807.34;;;17.44;100.00
14273;BME280;7220;49.450;11.052;2023-09-19T03:56:32;97787.38;;;17.37;100.00
14273;BME280;7220;49.450;11.052;2023-09-19T04:00:32;97798.38;;;17.34;100.00
14273;BME280;7220;49.450;11.052;2023-09-19T04:04:34;97800.34;;;17.32;100.00
14273;BME280;7220;49.450;11.052;2023-09-19T04:08:34;97807.25;;;17.25;100.00
14273;BME280;7220;49.450;11.052;2023-09-19T04:12:35;97810.22;;;17.22;100.00
14273;BME280;7220;49.450;11.052;2023-09-19T04:16:35;97816.69;;;17.19;100.00
14273;BME280;7220;49.450;11.052;2023-09-19T04:20:35;97819.81;;;17.14;100.00
14273;BME280;7220;49.450;11.052;2023-09-19T04:24:36;97829.41;;;17.17;100.00
14273;BME280;7220;49.450;11.052;2023-09-19T04:28:38;97826.97;;;17.14;100.00
14273;BME280;7220;49.450;11.052;2023-09-19T04:32:38;97820.19;;;17.10;100.00
14273;BME280;7220;49.450;11.052;2023-09-19T04:36:42;97830.06;;;17.09;100.00
14273;BME280;7220;49.450;11.052;2023-09-19T04:40:43;97838.41;;;17.06;100.00
14273;BME280;7220;49.450;11.052;2023-09-19T04:44:43;97831.34;;;17.05;100.00
14273;BME280;7220;49.450;11.052;2023-09-19T04:48:44;97840.81;;;17.09;100.00
14273;BME280;7220;49.450;11.052;2023-09-19T04:52:45;97855.09;;;17.10;100.00
14273;BME280;7220;49.450;11.052;2023-09-19T04:56:45;97843.03;;;17.04;100.00
14273;BME280;7220;49.450;11.052;2023-09-19T05:00:45;97846.72;;;17.03;100.00
14273;BME280;7220;49.450;11.052;2023-09-19T05:04:46;97834.81;;;16.96;100.00
14273;BME280;7220;49.450;11.052;2023-09-19T05:08:47;97851.41;;;17.11;100.00
14273;BME280;7220;49.450;11.052;2023-09-19T05:12:54;97856.66;;;17.12;100.00
14273;BME280;7220;49.450;11.052;2023-09-19T05:16:54;97848.88;;;17.09;100.00
14273;BME280;7220;49.450;11.052;2023-09-19T05:20:54;97854.69;;;17.14;100.00
14273;BME280;7220;49.450;11.052;2023-09-19T05:24:56;97856.38;;;17.15;100.00
14273;BME280;7220;49.450;11.052;2023-09-19T05:28:56;97857.53;;;17.23;100.00
14273;BME280;7220;49.450;11.052;2023-09-19T05:32:56;97864.38;;;17.27;100.00
14273;BME280;7220;49.450;11.052;2023-09-19T05:36:57;97871.31;;;17.29;100.00
14273;BME280;7220;49.450;11.052;2023-09-19T05:40:57;97868.22;;;17.34;100.00
14273;BME280;7220;49.450;11.052;2023-09-19T05:44:58;97876.72;;;17.39;100.00
14273;BME280;7220;49.450;11.052;2023-09-19T05:48:58;97892.59;;;17.42;100.00
14273;BME280;7220;49.450;11.052;2023-09-19T05:52:59;97889.50;;;17.47;100.00
14273;BME280;7220;49.450;11.052;2023-09-19T05:57:00;97892.03;;;17.48;100.00
14273;BME280;7220;49.450;11.052;2023-09-19T06:01:01;97906.19;;;17.50;100.00
14273;BME280;7220;49.450;11.052;2023-09-19T06:05:02;97911.31;;;17.54;100.00
14273;BME280;7220;49.450;11.052;2023-09-19T06:09:03;97916.69;;;17.54;100.00
14273;BME280;7220;49.450;11.052;2023-09-19T06:13:05;97924.59;;;17.55;100.00
14273;BME280;7220;49.450;11.052;2023-09-19T06:17:06;97922.91;;;17.54;100.00
14273;BME280;7220;49.450;11.052;2023-09-19T06:21:06;97927.16;;;17.57;100.00
14273;BME280;7220;49.450;11.052;2023-09-19T06:25:08;97939.06;;;17.64;100.00
14273;BME280;7220;49.450;11.052;2023-09-19T06:29:11;97945.00;;;17.67;100.00
14273;BME280;7220;49.450;11.052;2023-09-19T06:33:14;97941.94;;;17.72;100.00
14273;BME280;7220;49.450;11.052;2023-09-19T06:37:16;97950.72;;;17.74;100.00
14273;BME280;7220;49.450;11.052;2023-09-19T06:41:16;97944.75;;;17.71;100.00
14273;BME280;7220;49.450;11.052;2023-09-19T06:45:17;97947.31;;;17.72;100.00
14273;BME280;7220;49.450;11.052;2023-09-19T06:49:18;97956.09;;;17.74;100.00
14273;BME280;7220;49.450;11.052;2023-09-19T06:53:19;97960.50;;;17.75;100.00
14273;BME280;7220;49.450;11.052;2023-09-19T06:57:19;97953.84;;;17.79;100.00
14273;BME280;7220;49.450;11.052;2023-09-19T07:01:20;97950.91;;;17.82;100.00
14273;BME280;7220;49.450;11.052;2023-09-19T07:05:20;97968.44;;;17.87;100.00
14273;BME280;7220;49.450;11.052;2023-09-19T07:09:21;97958.16;;;17.92;100.00
14273;BME280;7220;49.450;11.052;2023-09-19T07:13:22;97959.09;;;18.02;99.89
14273;BME280;7220;49.450;11.052;2023-09-19T07:17:22;97971.84;;;18.10;96.87
14273;BME280;7220;49.450;11.052;2023-09-19T07:21:24;97969.00;;;18.11;94.70
14273;BME280;7220;49.450;11.052;2023-09-19T07:25:25;97984.34;;;18.21;91.49
14273;BME280;7220;49.450;11.052;2023-09-19T07:29:25;97983.09;;;18.25;90.17
14273;BME280;7220;49.450;11.052;2023-09-19T07:33:26;97989.88;;;18.29;88.71
14273;BME280;7220;49.450;11.052;2023-09-19T07:37:29;97991.44;;;18.32;87.76
14273;BME280;7220;49.450;11.052;2023-09-19T07:41:31;97997.13;;;18.38;87.65
14273;BME280;7220;49.450;11.052;2023-09-19T07:45:32;97981.56;;;18.42;87.58
14273;BME280;7220;49.450;11.052;2023-09-19T07:49:33;97994.88;;;18.43;86.55
14273;BME280;7220;49.450;11.052;2023-09-19T07:53:35;97992.91;;;18.45;86.02
14273;BME280;7220;49.450;11.052;2023-09-19T07:57:35;97992.81;;;18.57;84.78
14273;BME280;7220;49.450;11.052;2023-09-19T08:01:36;98006.13;;;18.68;83.28
14273;BME280;7220;49.450;11.052;2023-09-19T08:05:37;97997.63;;;18.73;80.84
14273;BME280;7220;49.450;11.052;2023-09-19T08:09:39;98007.84;;;18.79;81.85
14273;BME280;7220;49.450;11.052;2023-09-19T08:13:39;98008.72;;;18.80;82.17
14273;BME280;7220;49.450;11.052;2023-09-19T08:17:49;98016.22;;;18.86;83.28
14273;BME280;7220;49.450;11.052;2023-09-19T08:21:50;98012.81;;;18.84;83.13
14273;BME280;7220;49.450;11.052;2023-09-19T08:25:50;98033.34;;;18.85;82.78
14273;BME280;7220;49.450;11.052;2023-09-19T08:29:55;98026.84;;;18.77;82.38
14273;BME280;7220;49.450;11.052;2023-09-19T08:33:56;98036.50;;;18.90;82.46
14273;BME280;7220;49.450;11.052;2023-09-19T08:37:56;98033.69;;;19.01;82.77
14273;BME280;7220;49.450;11.052;2023-09-19T08:42:00;98035.41;;;19.02;82.10
14273;BME280;7220;49.450;11.052;2023-09-19T08:50:26;98054.56;;;19.29;79.27
14273;BME280;7220;49.450;11.052;2023-09-19T08:54:34;98045.50;;;19.30;77.09
14273;BME280;7220;49.450;11.052;2023-09-19T08:58:50;98050.72;;;19.31;76.47
14273;BME280;7220;49.450;11.052;2023-09-19T09:02:54;98062.09;;;19.45;76.37
14273;BME280;7220;49.450;11.052;2023-09-19T09:06:55;98048.06;;;19.41;77.42
14273;BME280;7220;49.450;11.052;2023-09-19T09:10:56;98074.84;;;19.52;77.28
14273;BME280;7220;49.450;11.052;2023-09-19T09:14:58;98047.75;;;19.54;77.27
14273;BME280;7220;49.450;11.052;2023-09-19T09:18:58;98048.31;;;19.67;74.97
14273;BME280;7220;49.450;11.052;2023-09-19T09:22:59;98057.22;;;19.68;74.03
14273;BME280;7220;49.450;11.052;2023-09-19T09:27:02;98068.72;;;19.80;74.04
14273;BME280;7220;49.450;11.052;2023-09-19T09:31:05;98074.69;;;19.74;73.32
14273;BME280;7220;49.450;11.052;2023-09-19T09:35:08;98082.06;;;19.81;72.98
14273;BME280;7220;49.450;11.052;2023-09-19T09:39:10;98084.88;;;19.80;73.12
14273;BME280;7220;49.450;11.052;2023-09-19T09:43:33;98088.06;;;19.85;72.15
14273;BME280;7220;49.450;11.052;2023-09-19T09:47:48;98085.03;;;19.78;71.71
14273;BME280;7220;49.450;11.052;2023-09-19T09:52:05;98087.88;;;19.77;71.93
14273;BME280;7220;49.450;11.052;2023-09-19T09:56:08;98087.91;;;19.86;72.22
14273;BME280;7220;49.450;11.052;2023-09-19T10:00:13;98087.75;;;19.88;72.36
14273;BME280;7220;49.450;11.052;2023-09-19T10:04:27;98093.28;;;19.86;72.34
14273;BME280;7220;49.450;11.052;2023-09-19T10:08:36;98085.44;;;19.83;72.61
14273;BME280;7220;49.450;11.052;2023-09-19T10:12:43;98084.06;;;19.99;72.24
14273;BME280;7220;49.450;11.052;2023-09-19T10:16:47;98064.75;;;19.94;71.77
14273;BME280;7220;49.450;11.052;2023-09-19T10:20:48;98078.88;;;20.25;71.61
14273;BME280;7220;49.450;11.052;2023-09-19T10:24:53;98059.00;;;20.26;71.98
14273;BME280;7220;49.450;11.052;2023-09-19T10:28:54;98068.97;;;20.44;69.68
14273;BME280;7220;49.450;11.052;2023-09-19T10:33:03;98062.31;;;20.48;67.98
14273;BME280;7220;49.450;11.052;2023-09-19T10:37:04;98078.16;;;20.61;67.68
14273;BME280;7220;49.450;11.052;2023-09-19T10:41:10;98076.16;;;20.73;68.56
14273;BME280;7220;49.450;11.052;2023-09-19T10:45:11;98077.19;;;20.90;64.56
14273;BME280;7220;49.450;11.052;2023-09-19T10:49:14;98091.31;;;21.02;65.51
14273;BME280;7220;49.450;11.052;2023-09-19T10:53:14;98065.47;;;20.99;66.97
14273;BME280;7220;49.450;11.052;2023-09-19T10:57:23;98075.13;;;21.02;62.37
14273;BME280;7220;49.450;11.052;2023-09-19T11:01:44;98079.06;;;21.07;62.38
14273;BME280;7220;49.450;11.052;2023-09-19T11:10:05;98077.69;;;21.21;60.06
14273;BME280;7220;49.450;11.052;2023-09-19T11:14:14;98087.09;;;21.17;57.96
14273;BME280;7220;49.450;11.052;2023-09-19T11:27:15;98068.03;;;21.73;55.37
14273;BME280;7220;49.450;11.052;2023-09-19T11:31:42;98063.63;;;21.90;54.36
14273;BME280;7220;49.450;11.052;2023-09-19T11:40:10;98076.44;;;22.67;53.91
14273;BME280;7220;49.450;11.052;2023-09-19T11:48:18;98048.03;;;23.55;56.43
14273;BME280;7220;49.450;11.052;2023-09-19T11:52:22;98054.69;;;23.94;54.46
14273;BME280;7220;49.450;11.052;2023-09-19T11:56:25;98053.28;;;23.48;54.60
14273;BME280;7220;49.450;11.052;2023-09-19T12:00:27;98068.53;;;23.66;53.66
14273;BME280;7220;49.450;11.052;2023-09-19T12:04:38;98063.13;;;23.74;52.29
14273;BME280;7220;49.450;11.052;2023-09-19T12:08:41;98055.47;;;23.86;51.07
14273;BME280;7220;49.450;11.052;2023-09-19T12:12:47;98055.34;;;23.63;49.63
14273;BME280;7220;49.450;11.052;2023-09-19T12:16:53;98057.38;;;23.77;48.37
14273;BME280;7220;49.450;11.052;2023-09-19T12:20:55;98051.94;;;23.61;48.38
14273;BME280;7220;49.450;11.052;2023-09-19T12:25:06;98058.69;;;23.48;49.38
14273;BME280;7220;49.450;11.052;2023-09-19T12:29:12;98059.72;;;24.05;47.25
14273;BME280;7220;49.450;11.052;2023-09-19T12:33:19;98051.47;;;24.47;47.49
14273;BME280;7220;49.450;11.052;2023-09-19T12:37:21;98055.88;;;24.56;46.60
14273;BME280;7220;49.450;11.052;2023-09-19T12:41:31;98046.44;;;24.83;45.87
14273;BME280;7220;49.450;11.052;2023-09-19T12:45:32;98062.44;;;25.10;44.69
14273;BME280;7220;49.450;11.052;2023-09-19T12:49:35;98061.13;;;24.57;46.12
14273;BME280;7220;49.450;11.052;2023-09-19T12:53:43;98050.66;;;24.46;47.16
14273;BME280;7220;49.450;11.052;2023-09-19T12:57:59;98045.97;;;24.23;47.04
14273;BME280;7220;49.450;11.052;2023-09-19T13:02:04;98043.94;;;24.65;46.83
14273;BME280;7220;49.450;11.052;2023-09-19T13:06:07;98035.34;;;24.93;46.73
14273;BME280;7220;49.450;11.052;2023-09-19T13:10:09;98033.63;;;24.92;46.31
14273;BME280;7220;49.450;11.052;2023-09-19T13:18:14;98031.25;;;24.97;46.68
14273;BME280;7220;49.450;11.052;2023-09-19T13:26:45;98020.13;;;25.39;45.18
14273;BME280;7220;49.450;11.052;2023-09-19T13:30:46;98016.41;;;25.78;45.09
14273;BME280;7220;49.450;11.052;2023-09-19T13:34:48;98005.63;;;25.99;43.73
14273;BME280;7220;49.450;11.052;2023-09-19T13:38:48;98011.22;;;26.21;43.43
14273;BME280;7220;49.450;11.052;2023-09-19T13:42:49;98033.56;;;26.32;43.31
14273;BME280;7220;49.450;11.052;2023-09-19T13:46:53;98004.94;;;26.21;42.75
14273;BME280;7220;49.450;11.052;2023-09-19T13:50:57;97996.94;;;26.49;43.27
14273;BME280;7220;49.450;11.052;2023-09-19T13:54:58;98006.97;;;26.49;41.35
14273;BME280;7220;49.450;11.052;2023-09-19T13:59:00;98002.78;;;25.93;42.42
14273;BME280;7220;49.450;11.052;2023-09-19T14:03:00;98003.75;;;25.47;42.80
14273;BME280;7220;49.450;11.052;2023-09-19T14:07:01;98010.31;;;25.29;43.95
14273;BME280;7220;49.450;11.052;2023-09-19T14:11:06;98000.16;;;25.23;44.51
14273;BME280;7220;49.450;11.052;2023-09-19T14:15:08;98000.47;;;25.28;45.98
14273;BME280;7220;49.450;11.052;2023-09-19T14:19:08;97995.38;;;25.25;45.13
14273;BME280;7220;49.450;11.052;2023-09-19T14:23:09;98005.53;;;25.31;44.64
14273;BME280;7220;49.450;11.052;2023-09-19T14:27:09;97998.63;;;25.20;44.32
14273;BME280;7220;49.450;11.052;2023-09-19T14:31:11;97990.59;;;25.27;44.89
14273;BME280;7220;49.450;11.052;2023-09-19T14:35:12;97992.72;;;25.17;44.52
14273;BME280;7220;49.450;11.052;2023-09-19T14:39:14;97987.66;;;25.14;44.69
14273;BME280;7220;49.450;11.052;2023-09-19T14:43:14;97991.16;;;25.23;44.72
14273;BME280;7220;49.450;11.052;2023-09-19T14:47:14;97984.25;;;25.12;44.71
14273;BME280;7220;49.450;11.052;2023-09-19T14:51:16;97982.69;;;24.94;45.06
14273;BME280;7220;49.450;11.052;2023-09-19T14:55:19;97977.72;;;24.75;46.14
14273;BME280;7220;49.450;11.052;2023-09-19T14:59:20;97968.94;;;24.56;45.79
14273;BME280;7220;49.450;11.052;2023-09-19T15:03:20;97966.06;;;24.49;45.86
14273;BME280;7220;49.450;11.052;2023-09-19T15:07:21;97960.16;;;24.46;46.23
14273;BME280;7220;49.450;11.052;2023-09-19T15:11:21;97968.19;;;24.39;46.08
14273;BME280;7220;49.450;11.052;2023-09-19T15:15:22;97975.72;;;24.20;46.90
14273;BME280;7220;49.450;11.052;2023-09-19T15:19:22;97958.94;;;24.17;47.05
14273;BME280;7220;49.450;11.052;2023-09-19T15:23:23;97981.34;;;24.19;47.01
14273;BME280;7220;49.450;11.052;2023-09-19T15:27:23;97966.44;;;23.98;45.78
14273;BME280;7220;49.450;11.052;2023-09-19T15:31:24;97973.56;;;23.83;46.39
14273;BME280;7220;49.450;11.052;2023-09-19T15:35:24;97970.88;;;23.74;46.71
14273;BME280;7220;49.450;11.052;2023-09-19T15:39:25;97947.50;;;23.57;47.00
14273;BME280;7220;49.450;11.052;2023-09-19T15:43:25;97953.44;;;23.52;47.02
14273;BME280;7220;49.450;11.052;2023-09-19T15:47:25;97969.06;;;23.42;46.63
14273;BME280;7220;49.450;11.052;2023-09-19T15:51:27;97968.19;;;23.25;46.76
14273;BME280;7220;49.450;11.052;2023-09-19T15:55:28;97976.47;;;23.15;47.26
14273;BME280;7220;49.450;11.052;2023-09-19T15:59:29;97972.41;;;23.03;47.21
14273;BME280;7220;49.450;11.052;2023-09-19T16:03:30;97976.81;;;22.95;48.08
14273;BME280;7220;49.450;11.052;2023-09-19T16:07:31;97971.88;;;22.82;48.23
14273;BME280;7220;49.450;11.052;2023-09-19T16:11:34;97968.97;;;22.76;48.58
14273;BME280;7220;49.450;11.052;2023-09-19T16:15:41;97971.47;;;22.69;48.98
14273;BME280;7220;49.450;11.052;2023-09-19T16:19:43;97983.66;;;22.57;49.63
14273;BME280;7220;49.450;11.052;2023-09-19T16:23:47;97975.28;;;22.42;49.90
14273;BME280;7220;49.450;11.052;2023-09-19T16:27:49;97983.59;;;22.40;50.42
14273;BME280;7220;49.450;11.052;2023-09-19T16:31:50;97985.53;;;22.30;50.54
14273;BME280;7220;49.450;11.052;2023-09-19T16:35:52;97968.56;;;22.19;51.37
14273;BME280;7220;49.450;11.052;2023-09-19T16:39:53;97978.84;;;22.16;51.61
14273;BME280;7220;49.450;11.052;2023-09-19T16:43:53;97978.81;;;22.08;51.82
14273;BME280;7220;49.450;11.052;2023-09-19T16:47:53;97966.13;;;22.00;52.32
14273;BME280;7220;49.450;11.052;2023-09-19T16:51:55;97971.16;;;21.95;52.92
14273;BME280;7220;49.450;11.052;2023-09-19T16:56:02;97973.88;;;21.95;53.13
14273;BME280;7220;49.450;11.052;2023-09-19T17:00:03;97971.25;;;21.85;53.53
14273;BME280;7220;49.450;11.052;2023-09-19T17:04:04;97982.72;;;21.79;53.78
14273;BME280;7220;49.450;11.052;2023-09-19T17:08:09;97976.63;;;21.77;54.30
14273;BME280;7220;49.450;11.052;2023-09-19T17:12:09;97978.13;;;21.71;54.86
14273;BME280;7220;49.450;11.052;2023-09-19T17:16:15;97982.16;;;21.67;54.81
14273;BME280;7220;49.450;11.052;2023-09-19T17:20:20;97969.16;;;21.52;55.65
14273;BME280;7220;49.450;11.052;2023-09-19T17:24:20;97979.66;;;21.55;55.73
14273;BME280;7220;49.450;11.052;2023-09-19T17:28:21;97984.00;;;21.48;56.68
14273;BME280;7220;49.450;11.052;2023-09-19T17:32:21;97969.03;;;21.36;57.37
14273;BME280;7220;49.450;11.052;2023-09-19T17:36:23;97975.38;;;21.26;57.04
14273;BME280;7220;49.450;11.052;2023-09-19T17:40:24;97981.41;;;21.20;57.78
14273;BME280;7220;49.450;11.052;2023-09-19T17:44:24;97976.94;;;21.11;58.70
14273;BME280;7220;49.450;11.052;2023-09-19T17:48:25;97979.47;;;21.12;58.66
14273;BME280;7220;49.450;11.052;2023-09-19T17:52:25;97992.06;;;21.04;58.92
14273;BME280;7220;49.450;11.052;2023-09-19T17:56:28;97974.78;;;20.96;59.43
14273;BME280;7220;49.450;11.052;2023-09-19T18:00:28;97986.81;;;20.84;59.12
14273;BME280;7220;49.450;11.052;2023-09-19T18:04:29;97988.97;;;20.80;59.17
14273;BME280;7220;49.450;11.052;2023-09-19T18:08:29;97989.38;;;20.86;58.83
14273;BME280;7220;49.450;11.052;2023-09-19T18:12:29;97995.41;;;20.70;59.05
14273;BME280;7220;49.450;11.052;2023-09-19T18:16:30;97986.59;;;20.68;59.66
14273;BME280;7220;49.450;11.052;2023-09-19T18:20:34;98000.06;;;20.49;60.59
14273;BME280;7220;49.450;11.052;2023-09-19T18:24:34;97999.13;;;20.41;60.82
14273;BME280;7220;49.450;11.052;2023-09-19T18:28:35;98009.50;;;20.36;61.49
14273;BME280;7220;49.450;11.052;2023-09-19T18:32:37;98012.41;;;20.24;61.93
14273;BME280;7220;49.450;11.052;2023-09-19T18:36:38;98018.25;;;20.20;62.66
14273;BME280;7220;49.450;11.052;2023-09-19T18:40:43;98016.72;;;20.17;62.71
14273;BME280;7220;49.450;11.052;2023-09-19T18:44:43;98011.47;;;20.06;62.72
14273;BME280;7220;49.450;11.052;2023-09-19T18:48:45;98021.56;;;20.04;63.76
14273;BME280;7220;49.450;11.052;2023-09-19T18:52:47;98023.03;;;19.98;63.74
14273;BME280;7220;49.450;11.052;2023-09-19T18:56:47;98028.84;;;19.93;64.49
14273;BME280;7220;49.450;11.052;2023-09-19T19:00:47;98017.94;;;19.85;65.62
14273;BME280;7220;49.450;11.052;2023-09-19T19:04:50;98036.34;;;19.80;65.36
14273;BME280;7220;49.450;11.052;2023-09-19T19:08:51;98035.53;;;19.69;65.39
14273;BME280;7220;49.450;11.052;2023-09-19T19:12:52;98030.69;;;19.63;65.95
14273;BME280;7220;49.450;11.052;2023-09-19T19:16:53;98039.38;;;19.57;66.58
14273;BME280;7220;49.450;11.052;2023-09-19T19:21:13;98050.47;;;19.54;67.11
14273;BME280;7220;49.450;11.052;2023-09-19T19:25:16;98042.09;;;19.47;67.29
14273;BME280;7220;49.450;11.052;2023-09-19T19:29:16;98054.28;;;19.42;68.58
14273;BME280;7220;49.450;11.052;2023-09-19T19:33:18;98054.59;;;19.38;68.61
14273;BME280;7220;49.450;11.052;2023-09-19T19:37:21;98046.63;;;19.27;69.64
14273;BME280;7220;49.450;11.052;2023-09-19T19:41:22;98058.38;;;19.26;69.54
14273;BME280;7220;49.450;11.052;2023-09-19T19:45:22;98056.53;;;19.17;70.21
14273;BME280;7220;49.450;11.052;2023-09-19T19:49:23;98061.22;;;19.15;70.50
14273;BME280;7220;49.450;11.052;2023-09-19T19:53:26;98063.94;;;19.15;70.93
14273;BME280;7220;49.450;11.052;2023-09-19T19:57:26;98073.41;;;19.09;71.00
14273;BME280;7220;49.450;11.052;2023-09-19T20:01:27;98063.91;;;19.05;71.76
14273;BME280;7220;49.450;11.052;2023-09-19T20:05:27;98066.59;;;18.95;72.43
14273;BME280;7220;49.450;11.052;2023-09-19T20:09:28;98079.00;;;18.86;72.99
14273;BME280;7220;49.450;11.052;2023-09-19T20:13:28;98072.44;;;18.79;72.66
14273;BME280;7220;49.450;11.052;2023-09-19T20:17:28;98070.63;;;18.80;73.25
14273;BME280;7220;49.450;11.052;2023-09-19T20:21:29;98068.19;;;18.76;73.53
14273;BME280;7220;49.450;11.052;2023-09-19T20:25:30;98067.34;;;18.66;74.24
14273;BME280;7220;49.450;11.052;2023-09-19T20:29:34;98075.94;;;18.60;74.64
14273;BME280;7220;49.450;11.052;2023-09-19T20:33:36;98082.28;;;18.49;75.28
14273;BME280;7220;49.450;11.052;2023-09-19T20:37:37;98090.91;;;18.43;76.13
14273;BME280;7220;49.450;11.052;2023-09-19T20:41:38;98078.09;;;18.35;76.93
14273;BME280;7220;49.450;11.052;2023-09-19T20:45:38;98072.44;;;18.28;76.96
14273;BME280;7220;49.450;11.052;2023-09-19T20:49:40;98068.44;;;18.23;77.47
14273;BME280;7220;49.450;11.052;2023-09-19T20:53:42;98083.13;;;18.19;78.18
14273;BME280;7220;49.450;11.052;2023-09-19T20:57:44;98046.13;;;18.01;78.37
14273;BME280;7220;49.450;11.052;2023-09-19T21:01:45;98075.41;;;18.04;78.95
14273;BME280;7220;49.450;11.052;2023-09-19T21:05:46;98077.41;;;18.02;79.46
14273;BME280;7220;49.450;11.052;2023-09-19T21:09:47;98082.44;;;17.95;79.61
14273;BME280;7220;49.450;11.052;2023-09-19T21:13:48;98081.81;;;17.92;80.05
14273;BME280;7220;49.450;11.052;2023-09-19T21:17:49;98061.09;;;17.82;80.49
14273;BME280;7220;49.450;11.052;2023-09-19T21:21:50;98079.19;;;17.80;80.52
14273;BME280;7220;49.450;11.052;2023-09-19T21:25:54;98074.69;;;17.81;80.75
14273;BME280;7220;49.450;11.052;2023-09-19T21:29:54;98068.97;;;17.74;81.05
14273;BME280;7220;49.450;11.052;2023-09-19T21:33:54;98068.97;;;17.74;81.08
14273;BME280;7220;49.450;11.052;2023-09-19T21:37:55;98071.22;;;17.69;82.14
14273;BME280;7220;49.450;11.052;2023-09-19T21:41:55;98066.63;;;17.60;82.10
14273;BME280;7220;49.450;11.052;2023-09-19T21:45:56;98073.09;;;17.57;82.66
14273;BME280;7220;49.450;11.052;2023-09-19T21:49:56;98073.59;;;17.51;83.23
14273;BME280;7220;49.450;11.052;2023-09-19T21:53:57;98068.44;;;17.38;84.28
14273;BME280;7220;49.450;11.052;2023-09-19T21:57:58;98067.50;;;17.28;85.07
14273;BME280;7220;49.450;11.052;2023-09-19T22:01:58;98064.31;;;17.23;85.05
14273;BME280;7220;49.450;11.052;2023-09-19T22:06:07;98077.28;;;17.17;86.51
14273;BME280;7220;49.450;11.052;2023-09-19T22:10:10;98078.31;;;17.05;87.10